This is the latest recevied weather packets stored in our database for station/object WX5KDM. If no packets are shown the sender has not sent any weather packets the latest 1 day(s).
| Time | Temp. | Humidity | Pressure | Rain* | Wind** | Luminosity | Snow |
|---|---|---|---|---|---|---|---|
| 1778099452 | 15° C | 97% | 1013.8 hPa | 0 mm | - | - | - |
| 1778097936 | 15° C | 97% | 1013.8 hPa | 0 mm | - | - | - |
| 1778097633 | 15.56° C | 97% | 1014.1 hPa | 0 mm | - | - | - |
| 1778097026 | 15.56° C | 98% | 1013.7 hPa | 0 mm | - | - | - |
| 1778096724 | 15.56° C | 98% | 1013.7 hPa | 0 mm | - | - | - |
| 1778096420 | 15.56° C | 98% | 1013.4 hPa | 0 mm | - | - | - |
| 1778093080 | 15° C | 99% | 1013.7 hPa | 0 mm | - | - | - |
| 1778092777 | 15° C | 99% | 1013.8 hPa | 0 mm | - | - | - |
| 1778092170 | 15.56° C | 99% | 1014 hPa | 0 mm | - | - | - |
| 1778091867 | 15.56° C | 99% | 1013.9 hPa | 0 mm | - | - | - |
| 1778091564 | 15.56° C | 99% | 1013.7 hPa | 0 mm | - | - | - |
| 1778090655 | 15.56° C | 99% | 1013.5 hPa | 0 mm | - | - | - |
| 1778090049 | 16.11° C | 99% | 1013.6 hPa | 0 mm | - | - | - |
| 1778089746 | 16.11° C | 99% | 1014 hPa | 0 mm | - | - | - |
| 1778089443 | 16.11° C | 99% | 1013.7 hPa | 0 mm | - | - | - |
| 1778089140 | 16.11° C | 99% | 1013.7 hPa | 0 mm | - | - | - |
| 1778088534 | 16.11° C | 99% | 1013.7 hPa | 0 mm | - | - | - |
| 1778087322 | 15.56° C | 99% | 1013.6 hPa | 0 mm | - | - | - |
| 1778087018 | 15.56° C | 99% | 1013.5 hPa | 0 mm | - | - | - |
| 1778086105 | 15.56° C | 99% | 1013.9 hPa | 0 mm | - | - | - |
| 1778085802 | 15.56° C | 99% | 1013.7 hPa | 0 mm | - | - | - |
| 1778083983 | 17.22° C | 98% | 1013.4 hPa | 0 mm | - | - | - |
| 1778081644 | 19.44° C | 99% | 1012.2 hPa | 0 mm | - | - | - |
| 1778081038 | 19.44° C | 99% | 1012.2 hPa | 0 mm | - | - | - |
| 1778080433 | 19.44° C | 99% | 1012.2 hPa | 0 mm | - | - | - |
* Rain latest hour (hover to see other rain measurements)
** Current wind speed in m/s (hover to see current wind gust speed)